sensor_id;sensor_type;location;lat;lon;timestamp;temperature;humidity
728;DHT22;347;48.780;9.158;2022-07-06T00:01:07;22.00;18.70
728;DHT22;347;48.780;9.158;2022-07-06T00:03:33;21.90;19.00
728;DHT22;347;48.780;9.158;2022-07-06T00:05:59;21.90;19.40
728;DHT22;347;48.780;9.158;2022-07-06T00:08:28;21.90;18.70
728;DHT22;347;48.780;9.158;2022-07-06T00:10:54;21.90;19.00
728;DHT22;347;48.780;9.158;2022-07-06T00:13:20;21.80;19.10
728;DHT22;347;48.780;9.158;2022-07-06T00:15:46;21.80;19.60
728;DHT22;347;48.780;9.158;2022-07-06T00:18:11;21.70;19.30
728;DHT22;347;48.780;9.158;2022-07-06T00:20:37;21.70;19.70
728;DHT22;347;48.780;9.158;2022-07-06T00:23:03;21.70;19.30
728;DHT22;347;48.780;9.158;2022-07-06T00:25:30;21.60;19.70
728;DHT22;347;48.780;9.158;2022-07-06T00:27:56;21.60;19.40
728;DHT22;347;48.780;9.158;2022-07-06T00:30:22;21.60;20.00
728;DHT22;347;48.780;9.158;2022-07-06T00:32:48;21.50;19.60
728;DHT22;347;48.780;9.158;2022-07-06T00:35:14;21.50;19.50
728;DHT22;347;48.780;9.158;2022-07-06T00:37:40;21.50;19.60
728;DHT22;347;48.780;9.158;2022-07-06T00:40:07;21.50;19.40
728;DHT22;347;48.780;9.158;2022-07-06T00:42:43;21.50;19.60
728;DHT22;347;48.780;9.158;2022-07-06T00:45:10;21.50;20.20
728;DHT22;347;48.780;9.158;2022-07-06T00:47:37;21.50;19.50
728;DHT22;347;48.780;9.158;2022-07-06T00:50:04;21.50;19.50
728;DHT22;347;48.780;9.158;2022-07-06T00:52:49;21.50;19.60
728;DHT22;347;48.780;9.158;2022-07-06T00:55:17;21.40;19.70
728;DHT22;347;48.780;9.158;2022-07-06T00:57:44;21.40;19.40
728;DHT22;347;48.780;9.158;2022-07-06T01:00:13;21.40;19.60
728;DHT22;347;48.780;9.158;2022-07-06T01:02:48;21.50;19.40
728;DHT22;347;48.780;9.158;2022-07-06T01:05:15;21.40;19.70
728;DHT22;347;48.780;9.158;2022-07-06T01:07:43;21.30;19.60
728;DHT22;347;48.780;9.158;2022-07-06T01:10:12;21.30;19.80
728;DHT22;347;48.780;9.158;2022-07-06T01:12:41;21.30;19.30
728;DHT22;347;48.780;9.158;2022-07-06T01:15:20;21.30;20.00
728;DHT22;347;48.780;9.158;2022-07-06T01:17:47;21.30;19.40
728;DHT22;347;48.780;9.158;2022-07-06T01:20:17;21.20;19.60
728;DHT22;347;48.780;9.158;2022-07-06T01:22:45;21.20;19.40
728;DHT22;347;48.780;9.158;2022-07-06T01:25:12;21.20;20.10
728;DHT22;347;48.780;9.158;2022-07-06T01:27:42;21.20;19.50
728;DHT22;347;48.780;9.158;2022-07-06T01:30:10;21.20;19.50
728;DHT22;347;48.780;9.158;2022-07-06T01:32:38;21.10;19.60
728;DHT22;347;48.780;9.158;2022-07-06T01:35:08;21.00;20.10
728;DHT22;347;48.780;9.158;2022-07-06T01:37:35;21.00;19.70
728;DHT22;347;48.780;9.158;2022-07-06T01:40:04;21.00;19.70
728;DHT22;347;48.780;9.158;2022-07-06T01:42:30;21.00;20.30
728;DHT22;347;48.780;9.158;2022-07-06T01:44:56;20.80;19.90
728;DHT22;347;48.780;9.158;2022-07-06T01:47:22;20.70;20.50
728;DHT22;347;48.780;9.158;2022-07-06T01:49:49;20.70;21.30
728;DHT22;347;48.780;9.158;2022-07-06T01:52:15;20.70;20.30
728;DHT22;347;48.780;9.158;2022-07-06T01:54:42;20.60;21.30
728;DHT22;347;48.780;9.158;2022-07-06T01:57:08;20.60;20.90
728;DHT22;347;48.780;9.158;2022-07-06T01:59:34;20.60;20.70
728;DHT22;347;48.780;9.158;2022-07-06T02:02:01;20.60;20.50
728;DHT22;347;48.780;9.158;2022-07-06T02:04:27;20.60;20.70
728;DHT22;347;48.780;9.158;2022-07-06T02:06:53;20.50;20.60
728;DHT22;347;48.780;9.158;2022-07-06T02:09:19;20.50;20.70
728;DHT22;347;48.780;9.158;2022-07-06T02:11:45;20.40;20.80
728;DHT22;347;48.780;9.158;2022-07-06T02:14:11;20.30;21.60
728;DHT22;347;48.780;9.158;2022-07-06T02:16:37;20.20;21.20
728;DHT22;347;48.780;9.158;2022-07-06T02:19:03;20.20;21.50
728;DHT22;347;48.780;9.158;2022-07-06T02:21:29;20.10;21.80
728;DHT22;347;48.780;9.158;2022-07-06T02:23:55;20.20;21.80
728;DHT22;347;48.780;9.158;2022-07-06T02:26:25;20.00;21.70
728;DHT22;347;48.780;9.158;2022-07-06T02:28:51;20.00;22.40
728;DHT22;347;48.780;9.158;2022-07-06T02:31:17;19.90;23.30
728;DHT22;347;48.780;9.158;2022-07-06T02:33:43;19.90;22.10
728;DHT22;347;48.780;9.158;2022-07-06T02:36:09;20.00;22.40
728;DHT22;347;48.780;9.158;2022-07-06T02:38:35;19.90;21.60
728;DHT22;347;48.780;9.158;2022-07-06T02:41:01;19.80;22.40
728;DHT22;347;48.780;9.158;2022-07-06T02:43:27;19.90;22.40
728;DHT22;347;48.780;9.158;2022-07-06T02:45:52;19.90;22.60
728;DHT22;347;48.780;9.158;2022-07-06T02:48:19;19.90;22.60
728;DHT22;347;48.780;9.158;2022-07-06T02:50:47;19.80;22.30
728;DHT22;347;48.780;9.158;2022-07-06T02:53:13;19.70;22.70
728;DHT22;347;48.780;9.158;2022-07-06T02:55:39;19.70;22.90
728;DHT22;347;48.780;9.158;2022-07-06T02:58:05;19.70;23.50
728;DHT22;347;48.780;9.158;2022-07-06T03:00:30;19.70;22.80
728;DHT22;347;48.780;9.158;2022-07-06T03:02:56;19.70;23.00
728;DHT22;347;48.780;9.158;2022-07-06T03:05:22;19.80;22.90
728;DHT22;347;48.780;9.158;2022-07-06T03:07:48;19.80;23.60
728;DHT22;347;48.780;9.158;2022-07-06T03:10:14;19.80;23.00
728;DHT22;347;48.780;9.158;2022-07-06T03:12:40;19.80;23.10
728;DHT22;347;48.780;9.158;2022-07-06T03:15:07;19.20;24.20
728;DHT22;347;48.780;9.158;2022-07-06T03:17:35;19.30;24.50
728;DHT22;347;48.780;9.158;2022-07-06T03:20:01;19.20;24.20
728;DHT22;347;48.780;9.158;2022-07-06T03:22:27;19.00;25.20
728;DHT22;347;48.780;9.158;2022-07-06T03:24:53;19.10;24.60
728;DHT22;347;48.780;9.158;2022-07-06T03:27:19;19.00;25.20
728;DHT22;347;48.780;9.158;2022-07-06T03:29:45;18.90;25.10
728;DHT22;347;48.780;9.158;2022-07-06T03:32:11;18.70;26.00
728;DHT22;347;48.780;9.158;2022-07-06T03:34:36;18.70;25.90
728;DHT22;347;48.780;9.158;2022-07-06T03:37:03;19.10;25.20
728;DHT22;347;48.780;9.158;2022-07-06T03:39:29;18.70;25.50
728;DHT22;347;48.780;9.158;2022-07-06T03:41:55;18.40;26.50
728;DHT22;347;48.780;9.158;2022-07-06T03:44:21;18.50;26.40
728;DHT22;347;48.780;9.158;2022-07-06T03:46:47;18.70;26.10
728;DHT22;347;48.780;9.158;2022-07-06T03:49:13;18.80;25.50
728;DHT22;347;48.780;9.158;2022-07-06T03:51:39;18.80;25.60
728;DHT22;347;48.780;9.158;2022-07-06T03:54:05;18.90;25.40
728;DHT22;347;48.780;9.158;2022-07-06T03:56:31;18.70;26.10
728;DHT22;347;48.780;9.158;2022-07-06T03:59:02;19.00;25.60
728;DHT22;347;48.780;9.158;2022-07-06T04:01:28;18.90;25.60
728;DHT22;347;48.780;9.158;2022-07-06T04:03:56;19.20;25.10
728;DHT22;347;48.780;9.158;2022-07-06T04:06:22;18.80;25.90
728;DHT22;347;48.780;9.158;2022-07-06T04:08:48;19.10;25.40
728;DHT22;347;48.780;9.158;2022-07-06T04:11:14;18.80;26.30
728;DHT22;347;48.780;9.158;2022-07-06T04:13:40;18.90;25.90
728;DHT22;347;48.780;9.158;2022-07-06T04:16:07;19.20;25.30
728;DHT22;347;48.780;9.158;2022-07-06T04:18:33;19.40;25.20
728;DHT22;347;48.780;9.158;2022-07-06T04:20:59;19.20;25.80
728;DHT22;347;48.780;9.158;2022-07-06T04:23:25;18.60;26.90
728;DHT22;347;48.780;9.158;2022-07-06T04:25:51;18.70;26.90
728;DHT22;347;48.780;9.158;2022-07-06T04:28:17;19.00;26.70
728;DHT22;347;48.780;9.158;2022-07-06T04:30:43;19.10;26.10
728;DHT22;347;48.780;9.158;2022-07-06T04:33:09;18.90;27.10
728;DHT22;347;48.780;9.158;2022-07-06T04:35:34;19.20;26.10
728;DHT22;347;48.780;9.158;2022-07-06T04:38:01;19.40;25.80
728;DHT22;347;48.780;9.158;2022-07-06T04:40:27;19.50;25.70
728;DHT22;347;48.780;9.158;2022-07-06T04:42:53;19.40;25.70
728;DHT22;347;48.780;9.158;2022-07-06T04:45:18;19.50;25.70
728;DHT22;347;48.780;9.158;2022-07-06T04:47:44;19.50;26.10
728;DHT22;347;48.780;9.158;2022-07-06T04:50:11;19.50;25.90
728;DHT22;347;48.780;9.158;2022-07-06T04:52:37;19.30;26.70
728;DHT22;347;48.780;9.158;2022-07-06T04:55:03;19.40;26.50
728;DHT22;347;48.780;9.158;2022-07-06T04:57:31;19.40;26.30
728;DHT22;347;48.780;9.158;2022-07-06T04:59:57;19.20;27.50
728;DHT22;347;48.780;9.158;2022-07-06T05:02:23;19.20;27.00
728;DHT22;347;48.780;9.158;2022-07-06T05:04:49;19.20;27.50
728;DHT22;347;48.780;9.158;2022-07-06T05:07:15;19.20;27.50
728;DHT22;347;48.780;9.158;2022-07-06T05:09:41;19.10;27.40
728;DHT22;347;48.780;9.158;2022-07-06T05:12:07;19.10;27.80
728;DHT22;347;48.780;9.158;2022-07-06T05:14:33;19.20;28.20
728;DHT22;347;48.780;9.158;2022-07-06T05:17:05;19.20;28.40
728;DHT22;347;48.780;9.158;2022-07-06T05:19:31;19.20;28.10
728;DHT22;347;48.780;9.158;2022-07-06T05:21:57;19.10;29.30
728;DHT22;347;48.780;9.158;2022-07-06T05:24:23;19.20;27.90
728;DHT22;347;48.780;9.158;2022-07-06T05:26:49;19.30;27.70
728;DHT22;347;48.780;9.158;2022-07-06T05:29:14;19.40;27.80
728;DHT22;347;48.780;9.158;2022-07-06T05:31:40;19.40;27.30
728;DHT22;347;48.780;9.158;2022-07-06T05:34:06;19.40;27.40
728;DHT22;347;48.780;9.158;2022-07-06T05:36:32;19.40;27.40
728;DHT22;347;48.780;9.158;2022-07-06T05:38:57;19.40;27.40
728;DHT22;347;48.780;9.158;2022-07-06T05:41:23;19.30;27.40
728;DHT22;347;48.780;9.158;2022-07-06T05:43:49;19.30;27.60
728;DHT22;347;48.780;9.158;2022-07-06T05:46:14;19.30;27.80
728;DHT22;347;48.780;9.158;2022-07-06T05:48:40;19.20;28.00
728;DHT22;347;48.780;9.158;2022-07-06T05:51:24;19.30;28.00
728;DHT22;347;48.780;9.158;2022-07-06T05:53:50;19.20;27.80
728;DHT22;347;48.780;9.158;2022-07-06T05:56:16;19.30;29.00
728;DHT22;347;48.780;9.158;2022-07-06T05:58:41;19.30;27.80
728;DHT22;347;48.780;9.158;2022-07-06T06:01:07;19.40;27.80
728;DHT22;347;48.780;9.158;2022-07-06T06:03:34;19.40;27.20
728;DHT22;347;48.780;9.158;2022-07-06T06:06:00;19.40;27.40
728;DHT22;347;48.780;9.158;2022-07-06T06:08:26;19.40;27.50
728;DHT22;347;48.780;9.158;2022-07-06T06:10:52;19.40;28.00
728;DHT22;347;48.780;9.158;2022-07-06T06:13:18;19.40;27.60
728;DHT22;347;48.780;9.158;2022-07-06T06:15:44;19.50;26.80
728;DHT22;347;48.780;9.158;2022-07-06T06:18:10;19.50;26.60
728;DHT22;347;48.780;9.158;2022-07-06T06:20:36;19.50;27.10
728;DHT22;347;48.780;9.158;2022-07-06T06:23:02;19.40;27.10
728;DHT22;347;48.780;9.158;2022-07-06T06:25:35;19.50;27.10
728;DHT22;347;48.780;9.158;2022-07-06T06:28:03;19.50;26.40
728;DHT22;347;48.780;9.158;2022-07-06T06:30:29;19.40;27.40
728;DHT22;347;48.780;9.158;2022-07-06T06:33:12;19.50;26.70
728;DHT22;347;48.780;9.158;2022-07-06T06:35:43;19.50;26.20
728;DHT22;347;48.780;9.158;2022-07-06T06:38:09;19.50;26.90
728;DHT22;347;48.780;9.158;2022-07-06T06:40:35;19.50;26.50
728;DHT22;347;48.780;9.158;2022-07-06T06:43:01;19.60;26.60
728;DHT22;347;48.780;9.158;2022-07-06T06:45:26;19.60;26.40
728;DHT22;347;48.780;9.158;2022-07-06T06:47:52;19.70;26.40
728;DHT22;347;48.780;9.158;2022-07-06T06:50:18;19.70;26.30
728;DHT22;347;48.780;9.158;2022-07-06T06:52:44;19.70;26.60
728;DHT22;347;48.780;9.158;2022-07-06T06:55:12;19.80;26.90
728;DHT22;347;48.780;9.158;2022-07-06T06:57:38;19.70;27.60
728;DHT22;347;48.780;9.158;2022-07-06T07:00:05;19.60;26.80
728;DHT22;347;48.780;9.158;2022-07-06T07:02:30;19.80;26.80
728;DHT22;347;48.780;9.158;2022-07-06T07:04:56;19.80;26.70
728;DHT22;347;48.780;9.158;2022-07-06T07:07:22;19.80;27.10
728;DHT22;347;48.780;9.158;2022-07-06T07:09:47;19.90;27.70
728;DHT22;347;48.780;9.158;2022-07-06T07:12:13;19.90;26.60
728;DHT22;347;48.780;9.158;2022-07-06T07:14:40;19.90;26.80
728;DHT22;347;48.780;9.158;2022-07-06T07:17:06;19.80;26.90
728;DHT22;347;48.780;9.158;2022-07-06T07:19:32;19.90;25.90
728;DHT22;347;48.780;9.158;2022-07-06T07:21:58;20.00;25.70
728;DHT22;347;48.780;9.158;2022-07-06T07:24:23;20.00;25.50
728;DHT22;347;48.780;9.158;2022-07-06T07:26:49;20.00;25.80
728;DHT22;347;48.780;9.158;2022-07-06T07:29:15;20.00;25.90
728;DHT22;347;48.780;9.158;2022-07-06T07:31:41;20.10;25.30
728;DHT22;347;48.780;9.158;2022-07-06T07:34:07;20.20;25.00
728;DHT22;347;48.780;9.158;2022-07-06T07:36:33;20.20;24.60
728;DHT22;347;48.780;9.158;2022-07-06T07:38:58;20.20;24.80
728;DHT22;347;48.780;9.158;2022-07-06T07:41:24;20.30;24.00
728;DHT22;347;48.780;9.158;2022-07-06T07:43:50;20.20;24.60
728;DHT22;347;48.780;9.158;2022-07-06T07:46:15;20.30;24.20
728;DHT22;347;48.780;9.158;2022-07-06T07:48:41;20.30;24.40
728;DHT22;347;48.780;9.158;2022-07-06T07:51:07;20.40;24.20
728;DHT22;347;48.780;9.158;2022-07-06T07:53:33;20.40;23.70
728;DHT22;347;48.780;9.158;2022-07-06T07:56:00;20.30;24.40
728;DHT22;347;48.780;9.158;2022-07-06T07:58:26;20.30;24.50
728;DHT22;347;48.780;9.158;2022-07-06T08:00:52;20.30;24.40
728;DHT22;347;48.780;9.158;2022-07-06T08:03:18;20.40;23.90
728;DHT22;347;48.780;9.158;2022-07-06T08:06:21;20.40;23.70
728;DHT22;347;48.780;9.158;2022-07-06T08:08:47;20.30;24.20
728;DHT22;347;48.780;9.158;2022-07-06T08:11:13;20.40;24.40
728;DHT22;347;48.780;9.158;2022-07-06T08:13:38;20.40;24.80
728;DHT22;347;48.780;9.158;2022-07-06T08:16:04;20.40;24.40
728;DHT22;347;48.780;9.158;2022-07-06T08:18:30;20.50;25.10
728;DHT22;347;48.780;9.158;2022-07-06T08:20:56;20.60;24.10
728;DHT22;347;48.780;9.158;2022-07-06T08:23:22;20.60;24.10
728;DHT22;347;48.780;9.158;2022-07-06T08:25:49;20.70;24.50
728;DHT22;347;48.780;9.158;2022-07-06T08:28:14;20.70;24.80
728;DHT22;347;48.780;9.158;2022-07-06T08:30:40;20.70;24.90
728;DHT22;347;48.780;9.158;2022-07-06T08:33:07;20.80;24.70
728;DHT22;347;48.780;9.158;2022-07-06T08:35:33;20.80;24.50
728;DHT22;347;48.780;9.158;2022-07-06T08:37:58;20.80;24.40
728;DHT22;347;48.780;9.158;2022-07-06T08:40:26;20.80;24.40
728;DHT22;347;48.780;9.158;2022-07-06T08:42:57;20.90;24.40
728;DHT22;347;48.780;9.158;2022-07-06T08:45:25;21.00;24.30
728;DHT22;347;48.780;9.158;2022-07-06T08:47:54;21.10;24.10
728;DHT22;347;48.780;9.158;2022-07-06T08:50:20;21.10;23.70
728;DHT22;347;48.780;9.158;2022-07-06T08:52:47;21.10;25.10
728;DHT22;347;48.780;9.158;2022-07-06T08:55:14;21.10;24.70
728;DHT22;347;48.780;9.158;2022-07-06T08:57:41;21.00;24.20
728;DHT22;347;48.780;9.158;2022-07-06T09:00:08;21.20;24.00
728;DHT22;347;48.780;9.158;2022-07-06T09:02:35;21.30;23.20
728;DHT22;347;48.780;9.158;2022-07-06T09:05:03;21.20;24.30
728;DHT22;347;48.780;9.158;2022-07-06T09:07:29;21.40;23.30
728;DHT22;347;48.780;9.158;2022-07-06T09:09:55;21.40;24.30
728;DHT22;347;48.780;9.158;2022-07-06T09:12:26;21.40;23.50
728;DHT22;347;48.780;9.158;2022-07-06T09:14:55;21.40;22.60
728;DHT22;347;48.780;9.158;2022-07-06T09:17:25;21.50;22.70
728;DHT22;347;48.780;9.158;2022-07-06T09:19:52;21.50;22.70
728;DHT22;347;48.780;9.158;2022-07-06T09:22:34;21.60;22.80
728;DHT22;347;48.780;9.158;2022-07-06T09:25:11;22.00;22.20
728;DHT22;347;48.780;9.158;2022-07-06T09:27:43;21.80;22.10
728;DHT22;347;48.780;9.158;2022-07-06T09:30:14;21.70;22.30
728;DHT22;347;48.780;9.158;2022-07-06T09:32:46;21.60;22.00
728;DHT22;347;48.780;9.158;2022-07-06T09:35:35;21.60;21.80
728;DHT22;347;48.780;9.158;2022-07-06T09:40:36;21.70;21.70
728;DHT22;347;48.780;9.158;2022-07-06T09:43:32;21.60;22.00
728;DHT22;347;48.780;9.158;2022-07-06T09:45:59;21.60;21.80
728;DHT22;347;48.780;9.158;2022-07-06T09:48:26;21.60;22.70
728;DHT22;347;48.780;9.158;2022-07-06T09:51:00;21.60;22.20
728;DHT22;347;48.780;9.158;2022-07-06T09:53:29;21.70;22.20
728;DHT22;347;48.780;9.158;2022-07-06T09:55:56;21.90;23.00
728;DHT22;347;48.780;9.158;2022-07-06T09:58:23;22.10;21.70
728;DHT22;347;48.780;9.158;2022-07-06T10:00:50;22.10;22.20
728;DHT22;347;48.780;9.158;2022-07-06T10:03:17;22.30;21.20
728;DHT22;347;48.780;9.158;2022-07-06T10:05:45;22.40;21.90
728;DHT22;347;48.780;9.158;2022-07-06T10:08:16;22.80;20.80
728;DHT22;347;48.780;9.158;2022-07-06T10:10:43;22.80;20.50
728;DHT22;347;48.780;9.158;2022-07-06T10:13:14;22.60;20.70
728;DHT22;347;48.780;9.158;2022-07-06T10:15:45;22.70;20.50
728;DHT22;347;48.780;9.158;2022-07-06T10:18:11;22.90;20.80
728;DHT22;347;48.780;9.158;2022-07-06T10:20:38;22.90;20.40
728;DHT22;347;48.780;9.158;2022-07-06T10:23:07;23.20;20.10
728;DHT22;347;48.780;9.158;2022-07-06T10:25:34;23.20;20.50
728;DHT22;347;48.780;9.158;2022-07-06T10:28:00;23.30;19.60
728;DHT22;347;48.780;9.158;2022-07-06T10:30:27;23.50;19.80
728;DHT22;347;48.780;9.158;2022-07-06T10:32:55;23.40;19.90
728;DHT22;347;48.780;9.158;2022-07-06T10:35:22;23.30;20.10
728;DHT22;347;48.780;9.158;2022-07-06T10:38:05;23.00;20.70
728;DHT22;347;48.780;9.158;2022-07-06T10:40:38;23.00;20.00
728;DHT22;347;48.780;9.158;2022-07-06T10:43:46;23.10;20.10
728;DHT22;347;48.780;9.158;2022-07-06T10:46:17;23.00;20.60
728;DHT22;347;48.780;9.158;2022-07-06T10:48:45;22.90;20.30
728;DHT22;347;48.780;9.158;2022-07-06T10:51:14;22.90;20.30
728;DHT22;347;48.780;9.158;2022-07-06T10:53:55;23.10;20.60
728;DHT22;347;48.780;9.158;2022-07-06T10:56:36;23.10;20.50
728;DHT22;347;48.780;9.158;2022-07-06T10:59:08;23.10;20.40
728;DHT22;347;48.780;9.158;2022-07-06T11:01:34;23.00;20.40
728;DHT22;347;48.780;9.158;2022-07-06T11:06:29;23.20;20.70
728;DHT22;347;48.780;9.158;2022-07-06T11:09:02;23.30;19.80
728;DHT22;347;48.780;9.158;2022-07-06T11:14:10;23.10;20.20
728;DHT22;347;48.780;9.158;2022-07-06T11:19:24;23.00;20.80
728;DHT22;347;48.780;9.158;2022-07-06T11:24:29;22.80;20.60
728;DHT22;347;48.780;9.158;2022-07-06T11:26:57;22.80;20.70
728;DHT22;347;48.780;9.158;2022-07-06T11:29:25;22.60;21.00
728;DHT22;347;48.780;9.158;2022-07-06T11:31:57;22.70;21.40
728;DHT22;347;48.780;9.158;2022-07-06T11:34:27;22.60;21.30
728;DHT22;347;48.780;9.158;2022-07-06T11:37:13;22.60;21.50
728;DHT22;347;48.780;9.158;2022-07-06T11:39:41;22.60;21.50
728;DHT22;347;48.780;9.158;2022-07-06T11:42:10;22.70;21.50
728;DHT22;347;48.780;9.158;2022-07-06T11:44:37;22.70;21.80
728;DHT22;347;48.780;9.158;2022-07-06T11:47:05;22.60;21.20
728;DHT22;347;48.780;9.158;2022-07-06T11:49:40;22.60;21.80
728;DHT22;347;48.780;9.158;2022-07-06T11:52:11;22.60;21.20
728;DHT22;347;48.780;9.158;2022-07-06T11:54:38;22.60;22.00
728;DHT22;347;48.780;9.158;2022-07-06T11:57:11;22.60;21.20
728;DHT22;347;48.780;9.158;2022-07-06T11:59:38;22.60;21.60
728;DHT22;347;48.780;9.158;2022-07-06T12:02:05;22.70;21.40
728;DHT22;347;48.780;9.158;2022-07-06T12:04:33;22.70;20.90
728;DHT22;347;48.780;9.158;2022-07-06T12:07:03;23.00;20.70
728;DHT22;347;48.780;9.158;2022-07-06T12:09:33;23.00;20.40
728;DHT22;347;48.780;9.158;2022-07-06T12:11:59;22.90;20.60
728;DHT22;347;48.780;9.158;2022-07-06T12:14:34;22.80;20.90
728;DHT22;347;48.780;9.158;2022-07-06T12:17:10;22.70;20.90
728;DHT22;347;48.780;9.158;2022-07-06T12:19:37;22.60;21.00
728;DHT22;347;48.780;9.158;2022-07-06T12:22:04;22.60;21.20
728;DHT22;347;48.780;9.158;2022-07-06T12:24:31;22.60;20.90
728;DHT22;347;48.780;9.158;2022-07-06T12:26:59;22.50;21.30
728;DHT22;347;48.780;9.158;2022-07-06T12:29:37;22.50;20.90
728;DHT22;347;48.780;9.158;2022-07-06T12:32:06;22.60;21.00
728;DHT22;347;48.780;9.158;2022-07-06T12:34:32;22.60;21.00
728;DHT22;347;48.780;9.158;2022-07-06T12:37:07;22.50;20.90
728;DHT22;347;48.780;9.158;2022-07-06T12:39:47;22.50;20.90
728;DHT22;347;48.780;9.158;2022-07-06T12:42:17;22.40;21.00
728;DHT22;347;48.780;9.158;2022-07-06T12:44:48;22.40;21.00
728;DHT22;347;48.780;9.158;2022-07-06T12:47:17;22.40;20.80
728;DHT22;347;48.780;9.158;2022-07-06T12:49:44;22.40;21.00
728;DHT22;347;48.780;9.158;2022-07-06T12:52:17;22.40;20.90
728;DHT22;347;48.780;9.158;2022-07-06T12:54:48;22.40;21.10
728;DHT22;347;48.780;9.158;2022-07-06T12:57:21;22.40;21.30
728;DHT22;347;48.780;9.158;2022-07-06T12:59:55;22.40;20.80
728;DHT22;347;48.780;9.158;2022-07-06T13:02:34;22.40;22.10
728;DHT22;347;48.780;9.158;2022-07-06T13:05:12;22.40;20.70
728;DHT22;347;48.780;9.158;2022-07-06T13:07:44;22.40;20.70
728;DHT22;347;48.780;9.158;2022-07-06T13:10:12;22.40;20.60
728;DHT22;347;48.780;9.158;2022-07-06T13:12:38;22.40;20.20
728;DHT22;347;48.780;9.158;2022-07-06T13:15:07;22.40;20.40
728;DHT22;347;48.780;9.158;2022-07-06T13:17:33;22.40;20.80
728;DHT22;347;48.780;9.158;2022-07-06T13:19:59;22.50;20.10
728;DHT22;347;48.780;9.158;2022-07-06T13:22:28;22.40;19.90
728;DHT22;347;48.780;9.158;2022-07-06T13:24:54;22.90;19.40
728;DHT22;347;48.780;9.158;2022-07-06T13:27:20;22.90;19.40
728;DHT22;347;48.780;9.158;2022-07-06T13:29:46;22.70;20.70
728;DHT22;347;48.780;9.158;2022-07-06T13:32:12;22.60;19.60
728;DHT22;347;48.780;9.158;2022-07-06T13:34:38;22.50;19.50
728;DHT22;347;48.780;9.158;2022-07-06T13:37:05;22.60;19.50
728;DHT22;347;48.780;9.158;2022-07-06T13:39:31;22.50;20.00
728;DHT22;347;48.780;9.158;2022-07-06T13:41:58;22.50;20.40
728;DHT22;347;48.780;9.158;2022-07-06T13:44:24;22.60;19.80
728;DHT22;347;48.780;9.158;2022-07-06T13:46:50;22.60;20.00
728;DHT22;347;48.780;9.158;2022-07-06T13:49:16;22.60;20.50
728;DHT22;347;48.780;9.158;2022-07-06T13:51:43;22.60;19.50
728;DHT22;347;48.780;9.158;2022-07-06T13:54:09;22.80;20.00
728;DHT22;347;48.780;9.158;2022-07-06T13:56:36;22.80;19.30
728;DHT22;347;48.780;9.158;2022-07-06T13:59:02;22.70;19.10
728;DHT22;347;48.780;9.158;2022-07-06T14:01:28;22.70;18.90
728;DHT22;347;48.780;9.158;2022-07-06T14:03:54;22.70;19.20
728;DHT22;347;48.780;9.158;2022-07-06T14:06:20;22.60;19.20
728;DHT22;347;48.780;9.158;2022-07-06T14:08:46;22.60;19.10
728;DHT22;347;48.780;9.158;2022-07-06T14:11:12;22.50;19.10
728;DHT22;347;48.780;9.158;2022-07-06T14:13:39;22.70;19.00
728;DHT22;347;48.780;9.158;2022-07-06T14:16:05;22.80;19.30
728;DHT22;347;48.780;9.158;2022-07-06T14:18:32;22.70;18.50
728;DHT22;347;48.780;9.158;2022-07-06T14:20:58;23.10;17.50
728;DHT22;347;48.780;9.158;2022-07-06T14:23:23;23.00;18.50
728;DHT22;347;48.780;9.158;2022-07-06T14:25:50;22.90;18.00
728;DHT22;347;48.780;9.158;2022-07-06T14:28:16;22.80;18.40
728;DHT22;347;48.780;9.158;2022-07-06T14:30:44;22.80;18.40
728;DHT22;347;48.780;9.158;2022-07-06T14:33:11;22.80;18.60
728;DHT22;347;48.780;9.158;2022-07-06T14:35:43;22.80;18.90
728;DHT22;347;48.780;9.158;2022-07-06T14:38:09;22.80;18.50
728;DHT22;347;48.780;9.158;2022-07-06T14:40:35;23.00;18.10
728;DHT22;347;48.780;9.158;2022-07-06T14:43:02;22.90;18.60
728;DHT22;347;48.780;9.158;2022-07-06T14:45:28;22.80;18.00
728;DHT22;347;48.780;9.158;2022-07-06T14:47:55;22.80;18.30
728;DHT22;347;48.780;9.158;2022-07-06T14:50:21;22.80;18.20
728;DHT22;347;48.780;9.158;2022-07-06T14:52:49;22.70;17.80
728;DHT22;347;48.780;9.158;2022-07-06T14:55:15;22.70;18.10
728;DHT22;347;48.780;9.158;2022-07-06T14:57:44;22.80;18.70
728;DHT22;347;48.780;9.158;2022-07-06T15:00:10;22.80;18.20
728;DHT22;347;48.780;9.158;2022-07-06T15:02:36;22.90;17.60
728;DHT22;347;48.780;9.158;2022-07-06T15:05:03;23.10;18.20
728;DHT22;347;48.780;9.158;2022-07-06T15:07:28;23.20;17.70
728;DHT22;347;48.780;9.158;2022-07-06T15:09:55;23.10;17.80
728;DHT22;347;48.780;9.158;2022-07-06T15:12:21;23.00;17.40
728;DHT22;347;48.780;9.158;2022-07-06T15:14:47;22.90;17.90
728;DHT22;347;48.780;9.158;2022-07-06T15:17:13;22.90;17.80
728;DHT22;347;48.780;9.158;2022-07-06T15:19:38;22.80;17.80
728;DHT22;347;48.780;9.158;2022-07-06T15:22:04;22.80;17.50
728;DHT22;347;48.780;9.158;2022-07-06T15:24:30;22.90;17.70
728;DHT22;347;48.780;9.158;2022-07-06T15:26:56;22.80;17.20
728;DHT22;347;48.780;9.158;2022-07-06T15:29:24;22.90;17.20
728;DHT22;347;48.780;9.158;2022-07-06T15:31:50;22.90;17.20
728;DHT22;347;48.780;9.158;2022-07-06T15:34:16;22.80;17.10
728;DHT22;347;48.780;9.158;2022-07-06T15:36:45;22.80;17.60
728;DHT22;347;48.780;9.158;2022-07-06T15:39:14;22.70;17.30
728;DHT22;347;48.780;9.158;2022-07-06T15:41:40;22.70;17.00
728;DHT22;347;48.780;9.158;2022-07-06T15:44:06;22.70;17.30
728;DHT22;347;48.780;9.158;2022-07-06T15:46:32;22.70;17.80
728;DHT22;347;48.780;9.158;2022-07-06T15:48:58;22.70;17.70
728;DHT22;347;48.780;9.158;2022-07-06T15:51:24;22.70;18.10
728;DHT22;347;48.780;9.158;2022-07-06T15:53:49;22.70;17.40
728;DHT22;347;48.780;9.158;2022-07-06T15:56:16;22.80;17.60
728;DHT22;347;48.780;9.158;2022-07-06T15:58:42;22.80;17.00
728;DHT22;347;48.780;9.158;2022-07-06T16:01:08;22.80;17.20
728;DHT22;347;48.780;9.158;2022-07-06T16:03:33;22.70;16.70
728;DHT22;347;48.780;9.158;2022-07-06T16:06:00;22.70;17.10
728;DHT22;347;48.780;9.158;2022-07-06T16:08:26;22.70;17.20
728;DHT22;347;48.780;9.158;2022-07-06T16:10:52;22.60;16.60
728;DHT22;347;48.780;9.158;2022-07-06T16:13:18;22.70;17.50
728;DHT22;347;48.780;9.158;2022-07-06T16:15:47;22.70;16.90
728;DHT22;347;48.780;9.158;2022-07-06T16:18:13;22.60;17.00
728;DHT22;347;48.780;9.158;2022-07-06T16:20:39;22.60;16.60
728;DHT22;347;48.780;9.158;2022-07-06T16:23:05;22.60;16.20
728;DHT22;347;48.780;9.158;2022-07-06T16:28:52;22.60;15.90
728;DHT22;347;48.780;9.158;2022-07-06T16:31:18;22.60;16.00
728;DHT22;347;48.780;9.158;2022-07-06T16:33:44;22.60;16.30
728;DHT22;347;48.780;9.158;2022-07-06T16:36:10;22.60;16.10
728;DHT22;347;48.780;9.158;2022-07-06T16:38:39;22.60;15.90
728;DHT22;347;48.780;9.158;2022-07-06T16:41:10;22.60;16.00
728;DHT22;347;48.780;9.158;2022-07-06T16:43:45;22.50;16.10
728;DHT22;347;48.780;9.158;2022-07-06T16:46:10;22.50;14.80
728;DHT22;347;48.780;9.158;2022-07-06T16:48:36;22.50;14.80
728;DHT22;347;48.780;9.158;2022-07-06T16:51:02;22.50;14.80
728;DHT22;347;48.780;9.158;2022-07-06T16:53:28;22.50;14.80